Time;durP1;ratioP1;P1;durP2;ratioP2;P2;SDS_P1;SDS_P2;PMS_P1;PMS_P2;Temp;Humidity;BMP_temperature;BMP_pressure;BME280_temperature;BME280_humidity;BME280_pressure;Samples;Min_cycle;Max_cycle;Signal;HPM_P1;HPM_P2
2022/04/20 00:01:31;;;;;;;6.55;4.03;;;;;;;;;;5057415;28;20432;-64
2022/04/20 00:03:57;;;;;;;7.68;4.07;;;8.10;99.90;;;;;;5067064;27;20986;-64
2022/04/20 00:06:22;;;;;;;8.37;4.40;;;8.10;99.90;;;;;;5071478;27;20496;-63
2022/04/20 00:08:48;;;;;;;7.38;4.05;;;;;;;;;;5070010;27;21219;-63
2022/04/20 00:11:14;;;;;;;7.95;4.32;;;;;;;;;;5044938;27;20642;-63
2022/04/20 00:13:40;;;;;;;6.85;4.40;;;7.90;99.90;;;;;;5073158;27;20506;-63
2022/04/20 00:16:06;;;;;;;6.35;4.07;;;;;;;;;;5069109;27;20431;-64
2022/04/20 00:18:32;;;;;;;6.30;4.22;;;;;;;;;;5072309;27;20421;-64
2022/04/20 00:20:58;;;;;;;7.43;4.32;;;;;;;;;;5069139;27;20496;-63
2022/04/20 00:23:24;;;;;;;7.25;4.43;;;;;;;;;;5055056;27;20435;-63
2022/04/20 00:25:50;;;;;;;6.28;4.00;;;7.80;99.90;;;;;;5072385;28;20456;-64
2022/04/20 00:28:16;;;;;;;8.25;4.75;;;;;;;;;;5067608;27;20417;-63
2022/04/20 00:30:42;;;;;;;7.03;4.53;;;;;;;;;;5071446;27;20414;-64
2022/04/20 00:33:08;;;;;;;7.00;4.13;;;;;;;;;;5051267;27;20446;-64
2022/04/20 00:35:34;;;;;;;7.10;4.57;;;;;;;;;;5070933;27;20966;-64
2022/04/20 00:38:00;;;;;;;7.50;4.43;;;;;;;;;;5064877;27;20417;-63
2022/04/20 00:40:26;;;;;;;7.35;4.53;;;;;;;;;;5068302;27;20416;-63
2022/04/20 00:42:52;;;;;;;7.43;4.40;;;7.50;99.90;;;;;;5093591;27;20623;-63
2022/04/20 00:45:18;;;;;;;6.80;4.50;;;;;;;;;;5095129;27;20479;-64
2022/04/20 00:47:44;;;;;;;7.13;4.77;;;;;;;;;;5086544;27;20412;-64
2022/04/20 00:50:11;;;;;;;8.13;4.63;;;;;;;;;;5054276;27;20440;-63
2022/04/20 00:52:37;;;;;;;7.03;4.72;;;;;;;;;;5070382;27;20420;-63
2022/04/20 00:55:04;;;;;;;9.00;4.90;;;;;;;;;;5071469;27;20421;-63
2022/04/20 00:57:30;;;;;;;8.00;4.88;;;;;;;;;;5074262;28;20460;-64
2022/04/20 00:59:57;;;;;;;9.73;4.90;;;;;;;;;;5070838;27;20763;-63
2022/04/20 01:02:23;;;;;;;8.30;4.70;;;7.00;99.90;;;;;;5067632;27;20427;-63
2022/04/20 01:04:49;;;;;;;8.03;5.10;;;;;;;;;;5065230;27;22445;-63
2022/04/20 01:07:16;;;;;;;7.65;5.00;;;7.20;99.90;;;;;;5056835;27;20412;-63
2022/04/20 01:09:43;;;;;;;6.80;4.65;;;;;;;;;;5072615;27;20428;-64
2022/04/20 01:12:09;;;;;;;10.13;5.10;;;;;;;;;;5069334;27;20556;-63
2022/04/20 01:14:36;;;;;;;10.05;5.00;;;;;;;;;;5072722;27;20416;-64
2022/04/20 01:17:03;;;;;;;7.47;4.90;;;;;;;;;;5066808;27;20416;-63
2022/04/20 01:19:35;;;;;;;7.45;4.82;;;;;;;;;;5074155;28;20416;-64
2022/04/20 01:22:01;;;;;;;7.95;4.97;;;;;;;;;;5066093;27;20457;-63
2022/04/20 01:24:28;;;;;;;8.53;5.23;;;;;;;;;;5063017;27;20461;-66
2022/04/20 01:26:54;;;;;;;7.35;4.97;;;;;;;;;;5040838;27;20882;-64
2022/04/20 01:29:20;;;;;;;7.32;5.22;;;;;;;;;;5073295;27;20434;-63
2022/04/20 01:31:47;;;;;;;9.40;5.40;;;;;;;;;;5072257;27;20837;-65
2022/04/20 01:34:13;;;;;;;7.63;4.97;;;;;;;;;;5071824;27;20427;-64
2022/04/20 01:36:39;;;;;;;9.02;5.10;;;;;;;;;;5059512;27;20429;-64
2022/04/20 01:39:05;;;;;;;10.82;5.32;;;;;;;;;;5066631;27;20425;-63
2022/04/20 01:41:31;;;;;;;9.20;5.00;;;6.90;99.90;;;;;;5069590;27;20420;-63
2022/04/20 01:43:57;;;;;;;9.50;5.53;;;;;;;;;;5073381;27;20424;-63
2022/04/20 01:46:23;;;;;;;8.45;5.28;;;;;;;;;;5068898;27;20820;-63
2022/04/20 01:48:50;;;;;;;9.45;5.32;;;;;;;;;;5070878;27;20499;-63
2022/04/20 01:54:00;;;;;;;9.50;5.28;;;;;;;;;;5080150;27;20418;-63
2022/04/20 01:56:26;;;;;;;8.05;5.45;;;;;;;;;;5034823;27;20413;-63
2022/04/20 01:58:52;;;;;;;9.02;5.60;;;;;;;;;;5047020;27;20512;-64
2022/04/20 02:04:03;;;;;;;8.43;5.20;;;;;;;;;;5049059;27;20434;-64
2022/04/20 02:06:29;;;;;;;8.80;5.53;;;;;;;;;;5070235;27;20412;-65
2022/04/20 02:08:55;;;;;;;8.18;5.00;;;;;;;;;;5070849;27;20426;-65
2022/04/20 02:11:21;;;;;;;10.48;5.70;;;;;;;;;;5070962;27;20408;-64
2022/04/20 02:13:47;;;;;;;8.43;5.30;;;;;;;;;;5070565;27;20479;-64
2022/04/20 02:16:13;;;;;;;9.57;5.60;;;;;;;;;;5068837;27;20420;-64
2022/04/20 02:18:39;;;;;;;9.18;5.80;;;;;;;;;;5071164;27;20522;-65
2022/04/20 02:21:05;;;;;;;9.23;5.47;;;;;;;;;;5070249;27;20431;-63
2022/04/20 02:23:31;;;;;;;10.07;5.68;;;;;;;;;;5063712;27;20687;-64
2022/04/20 02:25:57;;;;;;;8.48;5.20;;;;;;;;;;5070670;27;20428;-65
2022/04/20 02:28:24;;;;;;;10.60;5.15;;;;;;;;;;5062849;27;20525;-63
2022/04/20 02:30:50;;;;;;;9.05;5.35;;;;;;;;;;5054578;28;20431;-63
2022/04/20 02:33:16;;;;;;;8.83;5.37;;;;;;;;;;5066394;27;20977;-63
2022/04/20 02:35:42;;;;;;;8.73;4.97;;;;;;;;;;5074292;28;20420;-63
2022/04/20 02:38:10;;;;;;;7.97;5.20;;;;;;;;;;5067631;27;20424;-63
2022/04/20 02:40:40;;;;;;;10.23;5.47;;;6.40;99.90;;;;;;5069327;28;20424;-63
2022/04/20 02:43:06;;;;;;;8.20;5.10;;;;;;;;;;5063298;27;20451;-63
2022/04/20 02:45:33;;;;;;;9.10;5.47;;;;;;;;;;5068965;27;20442;-63
2022/04/20 02:48:00;;;;;;;9.73;5.57;;;;;;;;;;5050967;27;20508;-64
2022/04/20 02:50:26;;;;;;;10.43;5.50;;;;;;;;;;5091557;27;20829;-63
2022/04/20 02:52:52;;;;;;;8.05;5.40;;;;;;;;;;5067934;27;20474;-64
2022/04/20 02:55:18;;;;;;;7.93;5.27;;;;;;;;;;5068404;28;20470;-63
2022/04/20 02:57:44;;;;;;;8.50;5.35;;;;;;;;;;5068204;27;20420;-64
2022/04/20 03:00:11;;;;;;;8.68;4.95;;;;;;;;;;5069920;27;20424;-64
2022/04/20 03:02:37;;;;;;;8.00;5.28;;;;;;;;;;5068980;27;20408;-63
2022/04/20 03:05:03;;;;;;;9.60;5.43;;;6.20;99.90;;;;;;5066133;27;20436;-63
2022/04/20 03:07:30;;;;;;;8.82;5.30;;;;;;;;;;5063811;27;21109;-63
2022/04/20 03:09:56;;;;;;;7.67;5.43;;;;;;;;;;5067382;27;20423;-63
2022/04/20 03:12:22;;;;;;;8.05;5.45;;;;;;;;;;5069066;28;20842;-63
2022/04/20 03:14:48;;;;;;;8.13;5.75;;;;;;;;;;5070298;27;20428;-63
2022/04/20 03:17:14;;;;;;;9.65;5.78;;;;;;;;;;5067601;27;20456;-63
2022/04/20 03:19:40;;;;;;;9.52;6.15;;;;;;;;;;5049880;27;20451;-63
2022/04/20 03:22:06;;;;;;;8.13;5.83;;;;;;;;;;5069631;28;20491;-63
2022/04/20 03:24:32;;;;;;;8.25;5.63;;;;;;;;;;5058989;27;20424;-64
2022/04/20 03:26:58;;;;;;;8.43;5.47;;;;;;;;;;5066156;27;20418;-63
2022/04/20 03:29:24;;;;;;;8.50;5.63;;;;;;;;;;5060350;27;20420;-63
2022/04/20 03:31:51;;;;;;;9.02;5.70;;;;;;;;;;5071508;28;20433;-63
2022/04/20 03:34:17;;;;;;;8.67;5.60;;;;;;;;;;5065645;27;20408;-64
2022/04/20 03:36:43;;;;;;;8.23;5.60;;;;;;;;;;5067545;27;20416;-64
2022/04/20 03:39:09;;;;;;;9.32;5.65;;;;;;;;;;5053421;27;20498;-63
2022/04/20 03:41:35;;;;;;;9.43;6.05;;;;;;;;;;5049994;27;20483;-63
2022/04/20 03:44:01;;;;;;;11.43;6.30;;;;;;;;;;5073349;27;20499;-64
2022/04/20 03:46:26;;;;;;;9.27;5.85;;;5.50;99.90;;;;;;5036461;28;20419;-64
2022/04/20 03:48:53;;;;;;;11.23;6.50;;;;;;;;;;5061182;27;20494;-63
2022/04/20 03:51:19;;;;;;;9.98;5.97;;;;;;;;;;5065690;27;20419;-63
2022/04/20 03:53:45;;;;;;;10.65;6.45;;;;;;;;;;5068726;27;20435;-64
2022/04/20 03:56:11;;;;;;;10.73;6.65;;;;;;;;;;5064531;27;20414;-63
2022/04/20 03:58:37;;;;;;;9.60;6.32;;;;;;;;;;5067413;27;20448;-64
2022/04/20 04:01:03;;;;;;;8.57;6.07;;;6.10;99.90;;;;;;5058948;27;20504;-63
2022/04/20 04:03:29;;;;;;;9.93;6.18;;;;;;;;;;5066859;28;20475;-63
2022/04/20 04:05:56;;;;;;;9.05;6.43;;;;;;;;;;5065462;27;20434;-63
2022/04/20 04:08:22;;;;;;;10.27;6.60;;;;;;;;;;5065805;27;20427;-63
2022/04/20 04:10:49;;;;;;;10.73;6.80;;;;;;;;;;5066594;27;20418;-64
2022/04/20 04:13:16;;;;;;;10.43;6.40;;;;;;;;;;5064236;27;21231;-62
2022/04/20 04:15:43;;;;;;;10.15;6.47;;;;;;;;;;5064856;27;20467;-63
2022/04/20 04:18:10;;;;;;;12.00;5.95;;;;;;;;;;5067518;27;20416;-64
2022/04/20 04:20:36;;;;;;;9.00;5.85;;;;;;;;;;5051776;27;20456;-63
2022/04/20 04:23:02;;;;;;;9.45;6.20;;;;;;;;;;5071144;27;20442;-64
2022/04/20 04:25:29;;;;;;;10.07;6.28;;;;;;;;;;5046378;27;20534;-62
2022/04/20 04:27:55;;;;;;;11.23;6.40;;;5.50;99.90;;;;;;5059377;27;20544;-65
2022/04/20 04:30:21;;;;;;;9.97;6.70;;;;;;;;;;5048432;27;20457;-65
2022/04/20 04:32:47;;;;;;;11.20;6.60;;;;;;;;;;5062219;27;20462;-64
2022/04/20 04:35:14;;;;;;;12.00;6.90;;;;;;;;;;5071322;28;20469;-65
2022/04/20 04:37:40;;;;;;;9.88;6.32;;;;;;;;;;5056986;27;21016;-65
2022/04/20 04:40:07;;;;;;;9.52;6.50;;;;;;;;;;5040842;28;20427;-65
2022/04/20 04:42:33;;;;;;;10.10;6.50;;;;;;;;;;5061533;27;20432;-63
2022/04/20 04:48:36;;;;;;;9.57;6.40;;;;;;;;;;5069975;28;20473;-63
2022/04/20 04:50:29;;;;;;;9.97;6.47;;;;;;;;;;5069436;27;20473;-63
2022/04/20 04:52:56;;;;;;;10.88;6.50;;;;;;;;;;5074499;27;21095;-64
2022/04/20 04:55:22;;;;;;;11.68;6.40;;;;;;;;;;5064904;28;20412;-65
2022/04/20 04:57:48;;;;;;;10.93;6.65;;;;;;;;;;5054847;27;20431;-64
2022/04/20 05:00:14;;;;;;;9.77;6.30;;;;;;;;;;5049541;27;20431;-63
2022/04/20 05:02:40;;;;;;;9.40;6.37;;;;;;;;;;5051770;27;20426;-63
2022/04/20 05:05:06;;;;;;;11.00;6.63;;;;;;;;;;5048651;27;20422;-63
2022/04/20 05:07:32;;;;;;;10.50;6.30;;;;;;;;;;5065517;27;20420;-65
2022/04/20 05:09:58;;;;;;;9.20;6.32;;;;;;;;;;5067171;28;20427;-64
2022/04/20 05:12:24;;;;;;;9.13;6.30;;;;;;;;;;5070004;28;20445;-65
2022/04/20 05:14:50;;;;;;;9.65;6.97;;;;;;;;;;5064299;28;20477;-64
2022/04/20 05:17:17;;;;;;;11.30;6.65;;;;;;;;;;5067144;28;20562;-63
2022/04/20 05:19:43;;;;;;;9.18;6.63;;;;;;;;;;5070480;28;20471;-64
2022/04/20 05:22:09;;;;;;;9.20;6.47;;;;;;;;;;5063767;27;20632;-64
2022/04/20 05:24:36;;;;;;;10.60;6.63;;;;;;;;;;5068203;28;20574;-64
2022/04/20 05:27:02;;;;;;;8.57;6.10;;;;;;;;;;5071504;28;20426;-65
2022/04/20 05:29:28;;;;;;;9.98;5.78;;;;;;;;;;5062990;27;20492;-64
2022/04/20 05:31:55;;;;;;;8.05;5.60;;;;;;;;;;5066523;28;20436;-64
2022/04/20 05:34:23;;;;;;;7.65;5.78;;;;;;;;;;5070138;28;20427;-64
2022/04/20 05:42:19;;;;;;;9.80;6.05;;;;;;;;;;5059929;27;20509;-64
2022/04/20 05:44:48;;;;;;;8.82;6.22;;;;;;;;;;5046880;27;20434;-64
2022/04/20 05:47:14;;;;;;;7.40;5.32;;;;;;;;;;5055601;28;20846;-64
2022/04/20 05:49:41;;;;;;;8.13;5.67;;;;;;;;;;5082985;27;20771;-64
2022/04/20 05:52:07;;;;;;;8.73;5.75;;;;;;;;;;5067615;28;20541;-64
2022/04/20 05:54:33;;;;;;;8.73;5.85;;;;;;;;;;5065588;27;20424;-64
2022/04/20 05:56:59;;;;;;;9.10;6.00;;;;;;;;;;5063993;27;20474;-66
2022/04/20 05:59:26;;;;;;;7.82;5.95;;;;;;;;;;5057502;28;20457;-64
2022/04/20 06:01:53;;;;;;;9.52;5.82;;;;;;;;;;5066169;28;20431;-64
2022/04/20 06:04:18;;;;;;;10.38;5.50;;;7.40;99.90;;;;;;5069587;28;20443;-64
2022/04/20 06:06:44;;;;;;;10.23;5.32;;;;;;;;;;5062442;27;20927;-64
2022/04/20 06:09:11;;;;;;;8.80;5.50;;;;;;;;;;5063745;27;20429;-64
2022/04/20 06:11:37;;;;;;;9.30;5.40;;;;;;;;;;5056223;28;20414;-65
2022/04/20 06:14:03;;;;;;;7.90;5.38;;;8.10;99.90;;;;;;5063022;28;20456;-64
2022/04/20 06:16:29;;;;;;;9.07;5.32;;;;;;;;;;5052742;28;20419;-63
2022/04/20 06:18:56;;;;;;;6.75;5.13;;;;;;;;;;5063520;28;20478;-67
2022/04/20 06:21:22;;;;;;;8.98;5.40;;;;;;;;;;5070534;28;20483;-65
2022/04/20 06:23:48;;;;;;;8.63;5.88;;;;;;;;;;5067765;27;20424;-66
2022/04/20 06:26:15;;;;;;;9.35;5.60;;;;;;;;;;5070927;27;20423;-65
2022/04/20 06:28:41;;;;;;;8.18;5.53;;;;;;;;;;5062270;28;20424;-66
2022/04/20 06:31:07;;;;;;;7.80;5.22;;;;;;;;;;5067670;28;20420;-66
2022/04/20 06:33:33;;;;;;;7.38;5.05;;;;;;;;;;5070296;28;20416;-66
2022/04/20 06:36:00;;;;;;;7.93;4.97;;;;;;;;;;5060169;27;20490;-67
2022/04/20 06:38:27;;;;;;;8.15;5.25;;;8.80;99.90;;;;;;5062373;27;20469;-65
2022/04/20 06:40:53;;;;;;;8.18;5.22;;;;;;;;;;5071435;28;20803;-66
2022/04/20 06:43:19;;;;;;;7.70;5.10;;;;;;;;;;5073208;28;20431;-66
2022/04/20 06:45:45;;;;;;;8.40;5.30;;;;;;;;;;5063327;27;20438;-66
2022/04/20 06:48:12;;;;;;;7.47;4.97;;;;;;;;;;5073099;27;20430;-67
2022/04/20 06:50:40;;;;;;;7.43;5.15;;;;;;;;;;5067036;27;20423;-66
2022/04/20 06:58:36;;;;;;;7.80;4.57;;;9.60;99.90;;;;;;5062760;27;20428;-67
2022/04/20 07:01:06;;;;;;;8.70;5.15;;;;;;;;;;5051691;27;20655;-67
2022/04/20 07:03:32;;;;;;;8.32;4.97;;;;;;;;;;5065472;28;20426;-66
2022/04/20 07:05:59;;;;;;;7.90;5.07;;;;;;;;;;5060801;27;20435;-67
2022/04/20 07:08:26;;;;;;;8.20;4.70;;;;;;;;;;5062624;27;20420;-66
2022/04/20 07:10:53;;;;;;;8.93;5.00;;;;;;;;;;5031780;27;20447;-67
2022/04/20 07:13:19;;;;;;;7.90;5.00;;;;;;;;;;5068575;27;20494;-66
2022/04/20 07:15:46;;;;;;;8.47;4.80;;;;;;;;;;5064872;27;20820;-66
2022/04/20 07:18:12;;;;;;;9.50;4.93;;;;;;;;;;5070005;27;20440;-67
2022/04/20 07:20:39;;;;;;;9.38;5.15;;;;;;;;;;5067597;27;20423;-67
2022/04/20 07:23:05;;;;;;;6.93;4.65;;;;;;;;;;5065302;27;20412;-67
2022/04/20 07:25:31;;;;;;;7.93;4.70;;;11.20;99.90;;;;;;5070564;28;20435;-66
2022/04/20 07:27:57;;;;;;;7.65;4.60;;;;;;;;;;5065340;27;20403;-68
2022/04/20 07:30:23;;;;;;;9.07;4.78;;;;;;;;;;5071984;27;20420;-68
2022/04/20 07:32:49;;;;;;;7.57;4.45;;;;;;;;;;5068670;27;20423;-67
2022/04/20 07:35:16;;;;;;;9.07;4.90;;;;;;;;;;5069855;27;20422;-67
2022/04/20 07:37:42;;;;;;;7.38;4.35;;;;;;;;;;5068736;27;20416;-67
2022/04/20 07:40:08;;;;;;;7.50;4.30;;;;;;;;;;5066486;28;20424;-68
2022/04/20 07:42:37;;;;;;;7.05;4.45;;;11.60;99.90;;;;;;5071884;28;20424;-67
2022/04/20 07:45:03;;;;;;;8.48;4.18;;;;;;;;;;5063016;27;20433;-68
2022/04/20 07:47:30;;;;;;;7.37;4.10;;;;;;;;;;5074462;28;20522;-67
2022/04/20 07:52:45;;;;;;;5.82;3.63;;;;;;;;;;5067804;28;20416;-68
2022/04/20 07:55:15;;;;;;;6.82;3.70;;;;;;;;;;5068684;27;20566;-67
2022/04/20 07:57:44;;;;;;;6.57;3.78;;;;;;;;;;5071136;28;20408;-68
2022/04/20 08:00:11;;;;;;;5.57;3.63;;;;;;;;;;5065912;27;20443;-67
2022/04/20 08:02:37;;;;;;;5.50;3.50;;;;;;;;;;5065219;28;20528;-67
2022/04/20 08:05:03;;;;;;;6.57;3.15;;;;;;;;;;5063538;27;20445;-68
2022/04/20 08:07:29;;;;;;;5.90;2.92;;;;;;;;;;5044705;27;20558;-68
2022/04/20 08:09:56;;;;;;;5.32;3.00;;;;;;;;;;5069021;27;20414;-68
2022/04/20 08:12:24;;;;;;;5.75;2.83;;;;;;;;;;5071126;27;20419;-67
2022/04/20 08:14:51;;;;;;;5.43;3.00;;;;;;;;;;5072722;27;20454;-68
2022/04/20 08:17:18;;;;;;;6.32;3.15;;;;;;;;;;5077078;28;20486;-67
2022/04/20 08:19:44;;;;;;;5.95;2.92;;;;;;;;;;5059184;27;20696;-68
2022/04/20 08:22:10;;;;;;;4.00;2.50;;;;;;;;;;5050393;27;20431;-68
2022/04/20 08:24:36;;;;;;;4.65;2.95;;;;;;;;;;5078644;28;20448;-69
2022/04/20 08:27:02;;;;;;;5.38;3.03;;;;;;;;;;5070972;28;20430;-68
2022/04/20 08:29:28;;;;;;;4.60;2.80;;;;;;;;;;5067345;27;20814;-69
2022/04/20 08:31:54;;;;;;;5.30;2.97;;;;;;;;;;5074525;28;20419;-68
2022/04/20 08:34:20;;;;;;;5.35;2.70;;;;;;;;;;5065251;27;20424;-68
2022/04/20 08:36:46;;;;;;;5.40;2.95;;;;;;;;;;5070718;28;20496;-68
2022/04/20 08:39:13;;;;;;;5.18;2.70;;;;;;;;;;5066794;28;20412;-68
2022/04/20 08:41:40;;;;;;;5.70;2.58;;;;;;;;;;5052820;27;21264;-67
2022/04/20 08:44:08;;;;;;;5.45;2.60;;;;;;;;;;5074439;27;20427;-68
2022/04/20 08:46:37;;;;;;;5.20;2.70;;;;;;;;;;5066701;28;20428;-68
2022/04/20 08:49:04;;;;;;;4.25;2.60;;;;;;;;;;5084671;27;20419;-68
2022/04/20 08:52:37;;;;;;;4.53;2.60;;;;;;;;;;5080293;27;20529;-68
2022/04/20 08:54:18;;;;;;;4.23;2.57;;;;;;;;;;5060034;27;20437;-68
2022/04/20 08:59:29;;;;;;;5.45;2.40;;;;;;;;;;5072692;27;20427;-68
2022/04/20 09:01:57;;;;;;;5.15;2.15;;;;;;;;;;5070844;27;20441;-69
2022/04/20 09:04:24;;;;;;;4.80;2.40;;;;;;;;;;5068809;27;20576;-67
2022/04/20 09:06:50;;;;;;;4.13;2.63;;;14.60;99.90;;;;;;5069136;27;20907;-67
2022/04/20 09:09:18;;;;;;;4.85;2.30;;;;;;;;;;5074453;27;20479;-68
2022/04/20 09:11:46;;;;;;;4.07;2.22;;;;;;;;;;5068181;27;20424;-67
2022/04/20 09:14:16;;;;;;;5.07;2.40;;;;;;;;;;5070322;27;20423;-67
2022/04/20 09:16:43;;;;;;;6.15;2.30;;;14.70;99.90;;;;;;5068377;27;20428;-67
2022/04/20 09:19:10;;;;;;;4.82;2.10;;;;;;;;;;5051026;27;20912;-67
2022/04/20 09:21:36;;;;;;;3.17;2.00;;;;;;;;;;5070301;28;20941;-67
2022/04/20 09:24:09;;;;;;;4.50;1.95;;;;;;;;;;5064817;27;20517;-68
2022/04/20 09:26:50;;;;;;;4.28;1.90;;;;;;;;;;5057851;27;20442;-67
2022/04/20 09:29:16;;;;;;;4.50;1.60;;;;;;;;;;5052204;27;20433;-67
2022/04/20 09:31:43;;;;;;;4.30;1.83;;;;;;;;;;5056744;27;20478;-67
2022/04/20 09:34:09;;;;;;;2.63;1.60;;;;;;;;;;5058286;27;20420;-68
2022/04/20 09:36:42;;;;;;;3.73;1.60;;;;;;;;;;5053080;27;20435;-67
2022/04/20 09:39:09;;;;;;;3.35;1.50;;;;;;;;;;5033992;27;20989;-68
2022/04/20 09:41:37;;;;;;;4.30;1.50;;;;;;;;;;5032761;27;20912;-67
2022/04/20 09:44:08;;;;;;;5.80;1.60;;;;;;;;;;5046370;27;20446;-67
2022/04/20 09:49:34;;;;;;;2.88;1.48;;;;;;;;;;5064167;27;20428;-68
2022/04/20 09:52:10;;;;;;;5.55;1.70;;;15.20;94.30;;;;;;5073195;28;20412;-68
2022/04/20 09:54:37;;;;;;;3.67;1.50;;;;;;;;;;5068761;27;20408;-68
2022/04/20 09:57:13;;;;;;;2.53;1.30;;;;;;;;;;5069925;28;20492;-68
2022/04/20 09:59:57;;;;;;;5.00;1.50;;;;;;;;;;5068183;27;20417;-68
2022/04/20 10:02:25;;;;;;;3.30;1.70;;;;;;;;;;5059704;27;20471;-66
2022/04/20 10:04:52;;;;;;;4.25;1.45;;;;;;;;;;5044899;27;20487;-66
2022/04/20 10:07:18;;;;;;;3.80;1.75;;;;;;;;;;5053899;28;20466;-66
2022/04/20 10:09:45;;;;;;;3.97;1.67;;;;;;;;;;5071991;27;20809;-69
2022/04/20 10:12:15;;;;;;;3.80;1.40;;;;;;;;;;5070512;27;20548;-69
2022/04/20 10:17:28;;;;;;;3.33;1.75;;;;;;;;;;5066115;27;20483;-68
2022/04/20 10:19:54;;;;;;;3.30;1.70;;;;;;;;;;5066563;27;20443;-68
2022/04/20 10:22:23;;;;;;;2.83;1.73;;;15.80;92.00;;;;;;5068006;27;20923;-68
2022/04/20 10:24:52;;;;;;;3.42;1.55;;;;;;;;;;5063761;28;20436;-68
2022/04/20 10:27:29;;;;;;;2.17;1.42;;;16.40;92.20;;;;;;5069338;27;20458;-68
2022/04/20 10:29:55;;;;;;;3.10;1.60;;;;;;;;;;5073486;28;20416;-68
2022/04/20 10:32:25;;;;;;;3.95;1.60;;;;;;;;;;5064023;27;20440;-69
2022/04/20 10:34:52;;;;;;;2.50;1.50;;;;;;;;;;5056685;27;20422;-68
2022/04/20 10:37:20;;;;;;;5.10;1.77;;;;;;;;;;5065030;27;20439;-69
2022/04/20 10:39:47;;;;;;;2.95;1.48;;;16.60;91.90;;;;;;5074009;28;20441;-69
2022/04/20 10:42:16;;;;;;;5.40;1.50;;;;;;;;;;5070657;28;20435;-69
2022/04/20 10:44:49;;;;;;;3.50;1.70;;;;;;;;;;5068582;28;20430;-68
2022/04/20 10:47:22;;;;;;;5.18;1.88;;;16.50;90.80;;;;;;5064144;27;20431;-68
2022/04/20 10:49:50;;;;;;;3.37;1.60;;;;;;;;;;5069634;27;20715;-68
2022/04/20 10:52:24;;;;;;;3.10;1.90;;;;;;;;;;5070264;27;20447;-68
2022/04/20 10:54:53;;;;;;;4.32;1.70;;;;;;;;;;5050062;27;20446;-67
2022/04/20 10:57:33;;;;;;;3.60;2.00;;;;;;;;;;5067989;27;20791;-67
2022/04/20 11:00:20;;;;;;;4.82;2.00;;;;;;;;;;5071775;27;20423;-65
2022/04/20 11:02:53;;;;;;;3.50;1.80;;;;;;;;;;5063669;27;20427;-65
2022/04/20 11:05:21;;;;;;;4.25;1.90;;;;;;;;;;5069513;27;20431;-65
2022/04/20 11:08:07;;;;;;;3.90;1.90;;;17.10;91.20;;;;;;5067402;27;20424;-64
2022/04/20 11:10:34;;;;;;;7.15;1.83;;;;;;;;;;5074556;27;20518;-65
2022/04/20 11:19:07;;;;;;;3.83;2.10;;;;;;;;;;5061702;27;20424;-65
2022/04/20 11:21:33;;;;;;;4.47;2.17;;;;;;;;;;5071483;27;20423;-65
2022/04/20 11:24:07;;;;;;;3.65;2.00;;;;;;;;;;5060894;27;20526;-65
2022/04/20 11:26:40;;;;;;;3.03;2.00;;;;;;;;;;5092896;27;20466;-65
2022/04/20 11:29:15;;;;;;;4.05;2.10;;;;;;;;;;5078767;27;20416;-65
2022/04/20 11:31:51;;;;;;;4.63;2.13;;;;;;;;;;5069102;27;20419;-65
2022/04/20 11:34:20;;;;;;;4.03;2.20;;;;;;;;;;5051564;27;20931;-68
2022/04/20 11:36:51;;;;;;;4.00;2.08;;;;;;;;;;5062557;27;20447;-66
2022/04/20 11:39:18;;;;;;;3.63;2.00;;;;;;;;;;5097936;27;20482;-65
2022/04/20 11:41:48;;;;;;;4.95;2.30;;;;;;;;;;5057373;27;21138;-65
2022/04/20 11:44:33;;;;;;;4.38;1.83;;;;;;;;;;5063945;27;20428;-65
2022/04/20 11:47:04;;;;;;;3.00;2.00;;;;;;;;;;5056268;27;20513;-65
2022/04/20 11:49:50;;;;;;;3.42;2.00;;;;;;;;;;5076898;27;20490;-65
2022/04/20 11:52:18;;;;;;;6.97;2.13;;;;;;;;;;5100376;27;20493;-66
2022/04/20 11:54:48;;;;;;;4.27;2.20;;;;;;;;;;5066945;27;20489;-65
2022/04/20 11:57:15;;;;;;;5.05;2.30;;;;;;;;;;5067768;27;20418;-65
2022/04/20 12:00:20;;;;;;;3.08;2.00;;;17.60;90.50;;;;;;5260623;22;20513;-66
2022/04/20 12:02:48;;;;;;;4.68;2.25;;;;;;;;;;5053457;28;20448;-66
2022/04/20 12:05:14;;;;;;;4.32;2.13;;;;;;;;;;5044691;28;20438;-65
2022/04/20 12:07:40;;;;;;;4.53;2.10;;;;;;;;;;5057913;28;20543;-66
2022/04/20 12:10:06;;;;;;;4.80;2.00;;;;;;;;;;5050507;28;20432;-66
2022/04/20 12:12:33;;;;;;;3.10;1.80;;;;;;;;;;5045851;28;20421;-66
2022/04/20 12:15:07;;;;;;;3.30;1.85;;;;;;;;;;5057018;28;20453;-66
2022/04/20 12:17:33;;;;;;;4.68;1.95;;;18.80;88.80;;;;;;5051499;28;20474;-67
2022/04/20 12:19:59;;;;;;;4.07;2.10;;;;;;;;;;5036450;28;20444;-67
2022/04/20 12:22:26;;;;;;;3.60;2.05;;;;;;;;;;5054058;28;20450;-66
2022/04/20 12:25:08;;;;;;;4.47;2.10;;;;;;;;;;5050703;28;20445;-67
2022/04/20 12:27:49;;;;;;;2.72;1.90;;;;;;;;;;5044870;28;20500;-66
2022/04/20 12:30:16;;;;;;;4.93;1.83;;;;;;;;;;5026819;28;20863;-66
2022/04/20 12:32:42;;;;;;;4.18;1.80;;;;;;;;;;5045566;28;20426;-66
2022/04/20 12:35:08;;;;;;;2.40;1.50;;;18.90;88.60;;;;;;5054128;28;20450;-66
2022/04/20 12:37:39;;;;;;;2.83;1.60;;;;;;;;;;5050302;28;20455;-66
2022/04/20 12:40:23;;;;;;;4.57;1.55;;;;;;;;;;5042239;28;20464;-66
2022/04/20 12:43:05;;;;;;;3.78;1.83;;;;;;;;;;5044833;28;20443;-66
2022/04/20 12:45:32;;;;;;;2.92;1.77;;;;;;;;;;5050971;28;20421;-63
2022/04/20 12:48:06;;;;;;;3.15;1.73;;;;;;;;;;5043459;28;20655;-64
2022/04/20 12:50:36;;;;;;;4.40;1.83;;;;;;;;;;5046549;28;20432;-65
2022/04/20 12:53:03;;;;;;;3.83;1.88;;;;;;;;;;5043687;28;20426;-64
2022/04/20 12:55:35;;;;;;;3.33;1.80;;;;;;;;;;5046306;28;20431;-64
2022/04/20 13:03:35;;;;;;;3.05;1.65;;;;;;;;;;5041082;28;20522;-64
2022/04/20 13:06:01;;;;;;;3.58;1.70;;;;;;;;;;5043680;28;20423;-65
2022/04/20 13:08:27;;;;;;;2.47;1.70;;;;;;;;;;5044893;28;20415;-65
2022/04/20 13:10:53;;;;;;;3.28;1.70;;;;;;;;;;5036474;28;20428;-64
2022/04/20 13:13:24;;;;;;;2.78;1.70;;;18.80;88.20;;;;;;5036629;28;20434;-64
2022/04/20 13:15:50;;;;;;;3.28;1.80;;;;;;;;;;5042217;28;20462;-64
2022/04/20 13:18:16;;;;;;;2.45;1.70;;;;;;;;;;5031152;28;20441;-64
2022/04/20 13:20:42;;;;;;;3.75;1.75;;;;;;;;;;5033969;28;20427;-64
2022/04/20 13:23:08;;;;;;;3.50;1.70;;;;;;;;;;5033536;28;20454;-64
2022/04/20 13:28:19;;;;;;;4.90;1.85;;;;;;;;;;5036807;28;20998;-64
2022/04/20 13:30:46;;;;;;;6.90;2.03;;;18.30;90.30;;;;;;5033422;28;20539;-63
2022/04/20 13:33:13;;;;;;;5.43;2.10;;;;;;;;;;5042012;28;20448;-64
2022/04/20 13:35:40;;;;;;;3.92;1.80;;;;;;;;;;5034408;28;20438;-65
2022/04/20 13:38:06;;;;;;;3.20;1.48;;;;;;;;;;5031489;28;20431;-64
2022/04/20 13:40:33;;;;;;;3.93;1.70;;;;;;;;;;5037294;28;20423;-64
2022/04/20 13:43:00;;;;;;;4.37;1.80;;;;;;;;;;5042663;28;20481;-63
2022/04/20 13:45:26;;;;;;;2.70;1.60;;;;;;;;;;5027638;28;20445;-64
2022/04/20 13:47:53;;;;;;;3.20;1.85;;;;;;;;;;5035627;28;21002;-64
2022/04/20 13:50:19;;;;;;;3.53;2.05;;;;;;;;;;5037274;28;20427;-64
2022/04/20 13:52:45;;;;;;;4.38;1.90;;;;;;;;;;5035294;28;20435;-64
2022/04/20 13:55:11;;;;;;;3.03;1.73;;;;;;;;;;5028497;28;20447;-64
2022/04/20 13:57:38;;;;;;;3.42;1.45;;;;;;;;;;5033691;28;20430;-64
2022/04/20 14:00:05;;;;;;;2.63;1.60;;;;;;;;;;5028456;28;20442;-63
2022/04/20 14:02:31;;;;;;;4.38;1.60;;;;;;;;;;5030466;28;20433;-65
2022/04/20 14:04:57;;;;;;;3.58;1.58;;;17.90;91.30;;;;;;5013474;28;20445;-63
2022/04/20 14:07:23;;;;;;;3.90;1.90;;;;;;;;;;5026578;28;20432;-64
2022/04/20 14:09:49;;;;;;;5.20;2.25;;;;;;;;;;5036351;28;20451;-64
2022/04/20 14:12:16;;;;;;;4.03;1.85;;;;;;;;;;5040119;28;20426;-64
2022/04/20 14:14:42;;;;;;;3.30;1.85;;;;;;;;;;5037305;28;20425;-64
2022/04/20 14:17:10;;;;;;;3.70;1.80;;;;;;;;;;5023688;28;21286;-63
2022/04/20 14:19:40;;;;;;;5.55;1.90;;;;;;;;;;5031127;28;20458;-64
2022/04/20 14:22:07;;;;;;;4.30;2.38;;;17.20;92.40;;;;;;5034097;28;20470;-63
2022/04/20 14:24:36;;;;;;;3.97;2.20;;;;;;;;;;5036055;28;20858;-64
2022/04/20 14:32:32;;;;;;;2.83;1.90;;;;;;;;;;5035502;28;20415;-64
2022/04/20 14:34:58;;;;;;;5.40;2.20;;;;;;;;;;5037529;28;20431;-64
2022/04/20 14:37:24;;;;;;;3.95;2.20;;;;;;;;;;5040450;28;20439;-64
2022/04/20 14:39:50;;;;;;;4.57;2.60;;;;;;;;;;5032193;28;20431;-64
2022/04/20 14:42:17;;;;;;;9.85;3.72;;;;;;;;;;5036387;28;20512;-64
2022/04/20 14:44:44;;;;;;;6.15;3.92;;;;;;;;;;5040432;28;20518;-64
2022/04/20 14:47:11;;;;;;;6.80;4.30;;;;;;;;;;5039156;28;20421;-64
2022/04/20 14:49:37;;;;;;;5.28;4.00;;;;;;;;;;5039062;28;20887;-64
2022/04/20 14:52:07;;;;;;;5.85;3.70;;;;;;;;;;5033141;28;20513;-64
2022/04/20 14:54:34;;;;;;;7.00;4.10;;;;;;;;;;5026264;28;20434;-64
2022/04/20 14:57:00;;;;;;;9.00;3.95;;;16.70;96.40;;;;;;5036115;28;20453;-64
2022/04/20 14:59:26;;;;;;;6.50;4.50;;;;;;;;;;5038595;28;20447;-64
2022/04/20 15:01:52;;;;;;;9.63;4.60;;;;;;;;;;5031398;28;20427;-64
2022/04/20 15:04:20;;;;;;;8.27;4.60;;;;;;;;;;5028947;28;20438;-63
2022/04/20 15:06:50;;;;;;;12.25;5.10;;;;;;;;;;5030075;28;20435;-64
2022/04/20 15:09:16;;;;;;;8.57;4.93;;;;;;;;;;5018222;28;20470;-64
2022/04/20 15:11:42;;;;;;;8.15;4.80;;;;;;;;;;5026858;28;20429;-64
2022/04/20 15:14:10;;;;;;;7.63;4.60;;;;;;;;;;5029363;28;20415;-64
2022/04/20 15:16:36;;;;;;;9.07;5.10;;;;;;;;;;5025549;28;20468;-63
2022/04/20 15:19:02;;;;;;;8.00;4.50;;;;;;;;;;5030254;28;20430;-64
2022/04/20 15:21:32;;;;;;;8.20;4.95;;;;;;;;;;5033440;28;20423;-64